createdAt,value
2022-09-09T00:03:40.420Z,4.20
2022-09-09T00:08:52.257Z,3.20
2022-09-09T00:13:57.494Z,3.10
2022-09-09T00:19:07.750Z,3.30
2022-09-09T00:24:15.172Z,3.20
2022-09-09T00:29:28.314Z,3.50
2022-09-09T00:34:30.527Z,3.40
2022-09-09T00:39:39.413Z,2.90
2022-09-09T00:44:40.891Z,3.70
2022-09-09T00:50:03.565Z,3.50
2022-09-09T00:55:20.023Z,3.20
2022-09-09T01:00:46.827Z,3.50
2022-09-09T01:05:55.557Z,3.60
2022-09-09T01:10:59.110Z,3.20
2022-09-09T01:16:02.013Z,3.40
2022-09-09T01:21:18.506Z,3.90
2022-09-09T01:26:29.171Z,3.70
2022-09-09T01:31:39.176Z,3.00
2022-09-09T01:36:49.045Z,4.40
2022-09-09T01:41:47.754Z,3.60
2022-09-09T01:46:49.313Z,4.10
2022-09-09T01:51:55.604Z,4.00
2022-09-09T01:57:16.992Z,4.20
2022-09-09T02:02:29.516Z,4.80
2022-09-09T02:07:47.361Z,3.90
2022-09-09T02:13:15.861Z,4.00
2022-09-09T02:18:21.181Z,4.50
2022-09-09T02:23:22.026Z,5.30
2022-09-09T02:28:27.292Z,4.10
2022-09-09T02:33:30.949Z,5.30
2022-09-09T02:38:41.052Z,5.50
2022-09-09T02:43:41.813Z,4.50
2022-09-09T02:49:01.022Z,4.60
2022-09-09T02:54:19.969Z,4.80
2022-09-09T02:59:21.105Z,4.90
2022-09-09T03:04:21.460Z,4.20
2022-09-09T03:09:22.941Z,4.20
2022-09-09T03:14:23.017Z,4.20
2022-09-09T03:19:23.330Z,4.70
2022-09-09T03:24:23.973Z,4.80
2022-09-09T03:29:24.961Z,4.50
2022-09-09T03:34:25.333Z,4.80
2022-09-09T03:39:25.751Z,4.50
2022-09-09T03:44:24.849Z,4.00
2022-09-09T03:49:25.477Z,4.10
2022-09-09T03:54:27.381Z,4.70
2022-09-09T03:59:26.766Z,4.80
2022-09-09T04:04:27.077Z,4.50
2022-09-09T04:09:26.422Z,3.10
2022-09-09T04:14:30.283Z,4.80
2022-09-09T04:19:29.559Z,4.30
2022-09-09T04:24:30.326Z,4.00
2022-09-09T04:29:30.493Z,4.40
2022-09-09T04:34:30.883Z,4.00
2022-09-09T04:39:30.779Z,3.40
2022-09-09T04:44:31.465Z,3.70
2022-09-09T04:49:34.137Z,3.30
2022-09-09T04:54:33.641Z,3.20
2022-09-09T04:59:32.842Z,3.00
2022-09-09T05:04:32.218Z,3.90
2022-09-09T05:09:32.301Z,3.30
2022-09-09T05:14:33.412Z,2.90
2022-09-09T05:19:32.945Z,3.70
2022-09-09T05:24:34.579Z,3.40
2022-09-09T05:29:35.241Z,2.80
2022-09-09T05:34:36.818Z,3.10
2022-09-09T05:39:37.883Z,3.70
2022-09-09T05:44:36.825Z,3.30
2022-09-09T05:49:41.275Z,3.40
2022-09-09T05:54:43.310Z,3.10
2022-09-09T05:59:43.381Z,3.50
2022-09-09T06:04:43.132Z,2.90
2022-09-09T06:09:42.546Z,2.60
2022-09-09T06:14:46.814Z,3.20
2022-09-09T06:19:47.661Z,2.60
2022-09-09T06:24:47.077Z,3.00
2022-09-09T06:29:46.156Z,3.30
2022-09-09T06:34:46.613Z,3.30
2022-09-09T06:39:46.272Z,3.30
2022-09-09T06:44:45.531Z,2.70
2022-09-09T06:49:50.430Z,3.50
2022-09-09T06:54:52.200Z,3.40
2022-09-09T06:59:52.260Z,3.40
2022-09-09T07:04:52.707Z,3.30
2022-09-09T07:09:52.144Z,4.00
2022-09-09T07:14:52.527Z,3.70
2022-09-09T07:19:51.936Z,4.10
2022-09-09T07:24:50.940Z,4.00
2022-09-09T07:29:49.800Z,5.30
2022-09-09T07:34:52.526Z,4.90
2022-09-09T07:39:52.514Z,4.90
2022-09-09T07:44:56.139Z,5.30
2022-09-09T07:49:55.711Z,5.40
2022-09-09T07:55:01.339Z,4.90
2022-09-09T08:00:01.878Z,5.10
2022-09-09T08:05:00.420Z,5.60
2022-09-09T08:09:59.888Z,6.40
2022-09-09T08:15:01.955Z,5.70
2022-09-09T08:20:07.120Z,5.30
2022-09-09T08:25:11.594Z,5.90
2022-09-09T08:30:17.155Z,5.80
2022-09-09T08:35:18.875Z,6.00
2022-09-09T08:40:31.536Z,5.90
2022-09-09T08:45:47.405Z,6.30
2022-09-09T08:50:49.580Z,6.00
2022-09-09T08:55:56.534Z,5.80
2022-09-09T09:01:22.017Z,7.20
2022-09-09T09:06:42.579Z,9.10
2022-09-09T09:11:48.135Z,7.50
2022-09-09T09:16:59.029Z,8.10
2022-09-09T09:22:09.429Z,7.90
2022-09-09T09:27:17.636Z,6.20
2022-09-09T09:32:27.513Z,7.00
2022-09-09T09:37:33.551Z,7.20
2022-09-09T09:42:33.255Z,7.40
2022-09-09T09:47:33.871Z,6.80
2022-09-09T09:52:58.497Z,7.20
2022-09-09T10:03:26.972Z,7.70
2022-09-09T10:08:28.227Z,8.30
2022-09-09T10:13:39.341Z,8.30
2022-09-09T10:19:01.473Z,9.70
2022-09-09T10:24:21.813Z,9.40
2022-09-09T10:29:51.638Z,8.10
2022-09-09T10:35:05.777Z,7.60
2022-09-09T10:40:21.356Z,6.80
2022-09-09T10:45:34.917Z,9.10
2022-09-09T10:51:03.790Z,8.80
2022-09-09T10:56:11.687Z,9.50
2022-09-09T11:01:21.595Z,8.50
2022-09-09T11:06:25.761Z,8.70
2022-09-09T11:11:32.286Z,8.10
2022-09-09T11:16:42.988Z,9.40
2022-09-09T11:21:50.827Z,9.50
2022-09-09T11:26:53.918Z,9.30
2022-09-09T11:32:10.768Z,9.60
2022-09-09T11:37:56.661Z,10.40
2022-09-09T11:43:13.906Z,9.40
2022-09-09T11:48:31.818Z,9.60
2022-09-09T11:53:30.205Z,10.80
2022-09-09T11:58:30.413Z,10.70
2022-09-09T12:03:47.533Z,10.90
2022-09-09T12:08:54.172Z,10.30
2022-09-09T12:14:02.001Z,11.10
2022-09-09T12:19:17.582Z,12.40
2022-09-09T12:24:22.479Z,11.70
2022-09-09T12:29:35.287Z,10.90
2022-09-09T12:34:43.723Z,12.40
2022-09-09T12:39:52.121Z,13.20
2022-09-09T12:45:00.552Z,12.60
2022-09-09T12:50:00.788Z,11.50
2022-09-09T12:55:02.495Z,11.80
2022-09-09T13:00:15.460Z,11.60
2022-09-09T13:05:24.119Z,12.30
2022-09-09T13:10:49.738Z,12.00
2022-09-09T13:15:59.275Z,11.20
2022-09-09T13:21:00.135Z,9.80
2022-09-09T13:26:07.353Z,9.60
2022-09-09T13:31:21.569Z,11.10
2022-09-09T13:36:30.039Z,10.60
2022-09-09T13:41:37.909Z,11.00
2022-09-09T13:46:42.598Z,9.80
2022-09-09T13:51:47.972Z,9.50
2022-09-09T13:56:48.161Z,9.60
2022-09-09T14:01:47.590Z,10.10
2022-09-09T14:06:46.301Z,10.40
2022-09-09T14:11:46.971Z,12.00
2022-09-09T14:16:46.641Z,11.50
2022-09-09T14:21:45.675Z,10.90
2022-09-09T14:26:44.368Z,12.20
2022-09-09T14:31:45.624Z,11.30
2022-09-09T14:36:49.831Z,11.30
2022-09-09T14:41:51.988Z,12.10
2022-09-09T14:46:52.122Z,11.50
2022-09-09T14:51:52.288Z,11.20
2022-09-09T14:56:51.903Z,11.70
2022-09-09T15:01:51.317Z,11.50
2022-09-09T15:06:53.444Z,9.80
2022-09-09T15:11:52.458Z,12.20
2022-09-09T15:16:51.063Z,12.80
2022-09-09T15:21:50.148Z,12.10
2022-09-09T15:26:49.438Z,12.40
2022-09-09T15:31:48.843Z,12.30
2022-09-09T15:36:50.128Z,12.40
2022-09-09T15:41:50.551Z,12.70
2022-09-09T15:46:54.813Z,12.20
2022-09-09T15:52:03.407Z,10.40
2022-09-09T15:57:05.569Z,11.70
2022-09-09T16:02:06.296Z,11.50
2022-09-09T16:07:09.030Z,10.30
2022-09-09T16:12:10.892Z,12.20
2022-09-09T16:17:12.224Z,11.30
2022-09-09T16:22:12.312Z,11.10
2022-09-09T16:27:14.742Z,12.30
2022-09-09T16:32:13.717Z,11.80
2022-09-09T16:37:12.415Z,13.00
2022-09-09T16:42:11.757Z,12.20
2022-09-09T16:47:11.087Z,13.00
2022-09-09T16:52:10.113Z,11.80
2022-09-09T16:57:09.986Z,13.30
2022-09-09T17:02:10.322Z,13.30
2022-09-09T17:07:09.335Z,11.40
2022-09-09T17:12:13.116Z,12.10
2022-09-09T17:17:30.793Z,11.50
2022-09-09T17:22:31.982Z,10.90
2022-09-09T17:27:32.660Z,11.70
2022-09-09T17:32:31.518Z,13.10
2022-09-09T17:37:30.464Z,11.80
2022-09-09T17:42:30.300Z,12.10
2022-09-09T17:47:31.766Z,10.50
2022-09-09T17:52:31.796Z,11.80
2022-09-09T17:57:32.793Z,11.60
2022-09-09T18:02:31.376Z,11.00
2022-09-09T18:07:30.572Z,10.40
2022-09-09T18:12:30.541Z,11.20
2022-09-09T18:17:30.901Z,10.40
2022-09-09T18:22:32.026Z,10.90
2022-09-09T18:27:31.721Z,11.80
2022-09-09T18:32:31.341Z,9.80
2022-09-09T18:37:29.998Z,10.80
2022-09-09T18:42:29.217Z,9.80
2022-09-09T18:47:28.705Z,9.60
2022-09-09T18:52:27.863Z,9.90
2022-09-09T18:57:26.881Z,10.00
2022-09-09T19:02:25.333Z,10.10
2022-09-09T19:07:24.323Z,9.10
2022-09-09T19:12:23.326Z,9.30
2022-09-09T19:17:23.071Z,10.30
2022-09-09T19:22:23.496Z,9.50
2022-09-09T19:27:22.694Z,8.50
2022-09-09T19:32:52.653Z,8.80
2022-09-09T19:37:41.281Z,9.10
2022-09-09T19:42:40.844Z,8.40
2022-09-09T19:47:40.099Z,9.90
2022-09-09T19:52:39.960Z,8.20
2022-09-09T19:57:40.045Z,6.50
2022-09-09T20:02:40.000Z,8.50
2022-09-09T20:07:38.902Z,8.90
2022-09-09T20:12:37.929Z,8.10
2022-09-09T20:17:36.937Z,7.40
2022-09-09T20:22:36.320Z,7.30
2022-09-09T20:27:35.274Z,7.00
2022-09-09T20:32:33.987Z,7.60
2022-09-09T20:37:33.064Z,6.60
2022-09-09T20:42:31.951Z,7.60
2022-09-09T20:47:30.968Z,6.70
2022-09-09T20:52:29.761Z,7.20
2022-09-09T20:57:29.368Z,7.30
2022-09-09T21:02:29.317Z,5.00
2022-09-09T21:07:29.182Z,6.00
2022-09-09T21:12:28.411Z,5.90
2022-09-09T21:17:28.008Z,7.50
2022-09-09T21:22:27.654Z,6.80
2022-09-09T21:27:26.753Z,6.30
2022-09-09T21:32:26.907Z,5.80
2022-09-09T21:37:26.615Z,6.00
2022-09-09T21:42:25.227Z,6.60
2022-09-09T21:47:26.300Z,6.10
2022-09-09T21:52:25.193Z,6.30
2022-09-09T21:57:25.405Z,5.70
2022-09-09T22:02:28.271Z,5.70
2022-09-09T22:07:29.649Z,4.50
2022-09-09T22:12:28.763Z,6.20
2022-09-09T22:17:30.110Z,4.60
2022-09-09T22:22:29.552Z,5.60
2022-09-09T22:27:29.082Z,4.70
2022-09-09T22:32:28.717Z,4.30
2022-09-09T22:37:27.303Z,4.60
2022-09-09T22:42:25.886Z,5.00
2022-09-09T22:47:24.960Z,5.50
2022-09-09T22:52:26.182Z,5.30
2022-09-09T22:57:28.611Z,5.60
2022-09-09T23:02:27.298Z,5.70
2022-09-09T23:07:26.715Z,6.70
2022-09-09T23:12:25.851Z,5.20
2022-09-09T23:17:28.170Z,5.80
2022-09-09T23:22:28.883Z,6.00
2022-09-09T23:27:30.200Z,6.40
2022-09-09T23:32:31.254Z,5.30
2022-09-09T23:37:32.243Z,5.60
2022-09-09T23:42:34.632Z,5.30
2022-09-09T23:47:34.080Z,5.80
2022-09-09T23:52:33.123Z,4.90
2022-09-09T23:57:32.450Z,5.00
